sensor_id;sensor_type;location;lat;lon;timestamp;P1;durP1;ratioP1;P2;durP2;ratioP2
52942;SDS011;38809;53.300;6.614;2023-04-16T00:01:00;54.13;;;21.77;;
52942;SDS011;38809;53.300;6.614;2023-04-16T00:03:26;48.03;;;22.90;;
52942;SDS011;38809;53.300;6.614;2023-04-16T00:05:52;56.00;;;23.57;;
52942;SDS011;38809;53.300;6.614;2023-04-16T00:08:20;50.45;;;23.83;;
52942;SDS011;38809;53.300;6.614;2023-04-16T00:13:14;67.53;;;24.05;;
52942;SDS011;38809;53.300;6.614;2023-04-16T00:15:40;59.28;;;24.38;;
52942;SDS011;38809;53.300;6.614;2023-04-16T00:18:05;63.57;;;28.53;;
52942;SDS011;38809;53.300;6.614;2023-04-16T00:20:31;63.07;;;27.93;;
52942;SDS011;38809;53.300;6.614;2023-04-16T00:22:57;48.27;;;23.50;;
52942;SDS011;38809;53.300;6.614;2023-04-16T00:25:22;55.97;;;24.92;;
52942;SDS011;38809;53.300;6.614;2023-04-16T00:27:48;51.50;;;25.27;;
52942;SDS011;38809;53.300;6.614;2023-04-16T00:30:14;52.37;;;25.30;;
52942;SDS011;38809;53.300;6.614;2023-04-16T00:32:39;61.70;;;25.35;;
52942;SDS011;38809;53.300;6.614;2023-04-16T00:35:05;56.33;;;24.20;;
52942;SDS011;38809;53.300;6.614;2023-04-16T00:37:31;57.58;;;26.77;;
52942;SDS011;38809;53.300;6.614;2023-04-16T00:39:57;65.50;;;27.70;;
52942;SDS011;38809;53.300;6.614;2023-04-16T00:42:22;67.87;;;25.07;;
52942;SDS011;38809;53.300;6.614;2023-04-16T00:44:48;59.20;;;24.73;;
52942;SDS011;38809;53.300;6.614;2023-04-16T00:47:14;57.08;;;23.80;;
52942;SDS011;38809;53.300;6.614;2023-04-16T00:49:40;66.80;;;25.00;;
52942;SDS011;38809;53.300;6.614;2023-04-16T00:52:06;72.03;;;24.50;;
52942;SDS011;38809;53.300;6.614;2023-04-16T00:54:31;59.63;;;24.40;;
52942;SDS011;38809;53.300;6.614;2023-04-16T00:56:58;52.70;;;21.13;;
52942;SDS011;38809;53.300;6.614;2023-04-16T00:59:24;45.72;;;20.58;;
52942;SDS011;38809;53.300;6.614;2023-04-16T01:04:16;64.13;;;21.55;;
52942;SDS011;38809;53.300;6.614;2023-04-16T01:06:42;57.28;;;21.08;;
52942;SDS011;38809;53.300;6.614;2023-04-16T01:09:08;55.60;;;21.90;;
52942;SDS011;38809;53.300;6.614;2023-04-16T01:11:35;77.25;;;22.52;;
52942;SDS011;38809;53.300;6.614;2023-04-16T01:16:27;58.65;;;20.42;;
52942;SDS011;38809;53.300;6.614;2023-04-16T01:18:53;54.97;;;19.57;;
52942;SDS011;38809;53.300;6.614;2023-04-16T01:21:18;74.90;;;23.70;;
52942;SDS011;38809;53.300;6.614;2023-04-16T01:26:10;50.92;;;20.63;;
52942;SDS011;38809;53.300;6.614;2023-04-16T01:28:36;69.10;;;21.07;;
52942;SDS011;38809;53.300;6.614;2023-04-16T01:33:27;64.45;;;21.45;;
52942;SDS011;38809;53.300;6.614;2023-04-16T01:35:53;65.63;;;23.33;;
52942;SDS011;38809;53.300;6.614;2023-04-16T01:40:44;47.47;;;19.00;;
52942;SDS011;38809;53.300;6.614;2023-04-16T01:43:09;58.50;;;22.93;;
52942;SDS011;38809;53.300;6.614;2023-04-16T01:45:35;67.27;;;26.33;;
52942;SDS011;38809;53.300;6.614;2023-04-16T01:52:53;56.80;;;24.55;;
52942;SDS011;38809;53.300;6.614;2023-04-16T01:55:19;57.58;;;24.33;;
52942;SDS011;38809;53.300;6.614;2023-04-16T01:57:45;68.18;;;26.17;;
52942;SDS011;38809;53.300;6.614;2023-04-16T02:00:11;54.85;;;24.10;;
52942;SDS011;38809;53.300;6.614;2023-04-16T02:02:36;59.50;;;23.45;;
52942;SDS011;38809;53.300;6.614;2023-04-16T02:05:02;47.60;;;22.90;;
52942;SDS011;38809;53.300;6.614;2023-04-16T02:07:28;50.00;;;22.42;;
52942;SDS011;38809;53.300;6.614;2023-04-16T02:09:55;46.53;;;22.00;;
52942;SDS011;38809;53.300;6.614;2023-04-16T02:14:47;46.25;;;20.88;;
52942;SDS011;38809;53.300;6.614;2023-04-16T02:17:13;51.38;;;23.63;;
52942;SDS011;38809;53.300;6.614;2023-04-16T02:19:39;48.63;;;21.88;;
52942;SDS011;38809;53.300;6.614;2023-04-16T02:22:05;41.75;;;20.60;;
52942;SDS011;38809;53.300;6.614;2023-04-16T02:24:31;56.03;;;22.40;;
52942;SDS011;38809;53.300;6.614;2023-04-16T02:26:57;56.03;;;21.73;;
52942;SDS011;38809;53.300;6.614;2023-04-16T02:29:22;57.00;;;23.60;;
52942;SDS011;38809;53.300;6.614;2023-04-16T03:44:39;33.78;;;15.57;;
52942;SDS011;38809;53.300;6.614;2023-04-16T03:54:21;39.97;;;16.88;;
52942;SDS011;38809;53.300;6.614;2023-04-16T04:04:03;37.65;;;15.18;;
52942;SDS011;38809;53.300;6.614;2023-04-16T04:11:20;34.72;;;16.25;;
52942;SDS011;38809;53.300;6.614;2023-04-16T05:51:02;21.80;;;10.45;;
52942;SDS011;38809;53.300;6.614;2023-04-16T06:29:52;30.48;;;9.95;;
52942;SDS011;38809;53.300;6.614;2023-04-16T07:13:35;26.08;;;10.27;;
52942;SDS011;38809;53.300;6.614;2023-04-16T08:02:10;22.42;;;10.60;;
52942;SDS011;38809;53.300;6.614;2023-04-16T08:04:38;24.77;;;10.82;;
52942;SDS011;38809;53.300;6.614;2023-04-16T08:09:31;19.90;;;10.85;;
52942;SDS011;38809;53.300;6.614;2023-04-16T08:11:58;26.73;;;11.70;;
52942;SDS011;38809;53.300;6.614;2023-04-16T08:14:24;24.70;;;12.35;;
52942;SDS011;38809;53.300;6.614;2023-04-16T08:16:50;22.93;;;11.87;;
52942;SDS011;38809;53.300;6.614;2023-04-16T08:19:16;24.05;;;11.95;;
52942;SDS011;38809;53.300;6.614;2023-04-16T08:21:41;21.95;;;11.65;;
52942;SDS011;38809;53.300;6.614;2023-04-16T08:24:07;28.20;;;12.63;;
52942;SDS011;38809;53.300;6.614;2023-04-16T08:26:33;26.05;;;12.07;;
52942;SDS011;38809;53.300;6.614;2023-04-16T08:28:59;24.55;;;11.00;;
52942;SDS011;38809;53.300;6.614;2023-04-16T08:31:24;22.42;;;10.25;;
52942;SDS011;38809;53.300;6.614;2023-04-16T08:33:50;25.85;;;12.85;;
52942;SDS011;38809;53.300;6.614;2023-04-16T08:36:16;19.75;;;11.98;;
52942;SDS011;38809;53.300;6.614;2023-04-16T08:38:41;20.93;;;10.57;;
52942;SDS011;38809;53.300;6.614;2023-04-16T08:41:08;18.87;;;11.37;;
52942;SDS011;38809;53.300;6.614;2023-04-16T08:43:37;20.20;;;11.38;;
52942;SDS011;38809;53.300;6.614;2023-04-16T08:46:06;22.48;;;11.60;;
52942;SDS011;38809;53.300;6.614;2023-04-16T08:48:33;24.85;;;11.90;;
52942;SDS011;38809;53.300;6.614;2023-04-16T08:51:00;20.17;;;10.75;;
52942;SDS011;38809;53.300;6.614;2023-04-16T08:53:39;19.85;;;11.00;;
52942;SDS011;38809;53.300;6.614;2023-04-16T08:56:10;23.45;;;11.02;;
52942;SDS011;38809;53.300;6.614;2023-04-16T08:58:37;20.92;;;11.63;;
52942;SDS011;38809;53.300;6.614;2023-04-16T09:03:30;23.48;;;11.88;;
52942;SDS011;38809;53.300;6.614;2023-04-16T09:05:56;22.08;;;11.25;;
52942;SDS011;38809;53.300;6.614;2023-04-16T09:08:26;21.45;;;11.98;;
52942;SDS011;38809;53.300;6.614;2023-04-16T09:10:54;21.25;;;12.23;;
52942;SDS011;38809;53.300;6.614;2023-04-16T09:13:21;19.65;;;11.25;;
52942;SDS011;38809;53.300;6.614;2023-04-16T09:18:16;22.02;;;10.85;;
52942;SDS011;38809;53.300;6.614;2023-04-16T09:20:44;17.65;;;10.35;;
52942;SDS011;38809;53.300;6.614;2023-04-16T09:23:10;17.95;;;10.65;;
52942;SDS011;38809;53.300;6.614;2023-04-16T09:25:36;19.13;;;11.55;;
52942;SDS011;38809;53.300;6.614;2023-04-16T09:28:02;20.48;;;10.93;;
52942;SDS011;38809;53.300;6.614;2023-04-16T09:30:28;23.48;;;10.75;;
52942;SDS011;38809;53.300;6.614;2023-04-16T09:33:14;25.33;;;10.27;;
52942;SDS011;38809;53.300;6.614;2023-04-16T09:35:47;18.50;;;9.90;;
52942;SDS011;38809;53.300;6.614;2023-04-16T09:38:14;19.02;;;10.98;;
52942;SDS011;38809;53.300;6.614;2023-04-16T09:40:40;19.52;;;9.95;;
52942;SDS011;38809;53.300;6.614;2023-04-16T09:43:10;17.80;;;9.65;;
52942;SDS011;38809;53.300;6.614;2023-04-16T09:45:54;17.38;;;9.75;;
52942;SDS011;38809;53.300;6.614;2023-04-16T09:48:29;18.55;;;9.25;;
52942;SDS011;38809;53.300;6.614;2023-04-16T09:50:56;17.17;;;10.00;;
52942;SDS011;38809;53.300;6.614;2023-04-16T09:53:23;21.88;;;10.77;;
52942;SDS011;38809;53.300;6.614;2023-04-16T09:55:51;18.65;;;9.90;;
52942;SDS011;38809;53.300;6.614;2023-04-16T09:58:24;19.38;;;9.90;;
52942;SDS011;38809;53.300;6.614;2023-04-16T10:01:08;20.80;;;10.02;;
52942;SDS011;38809;53.300;6.614;2023-04-16T10:03:37;20.25;;;9.65;;
52942;SDS011;38809;53.300;6.614;2023-04-16T10:08:43;19.90;;;9.50;;
52942;SDS011;38809;53.300;6.614;2023-04-16T10:11:13;23.73;;;10.65;;
52942;SDS011;38809;53.300;6.614;2023-04-16T10:13:41;22.27;;;10.57;;
52942;SDS011;38809;53.300;6.614;2023-04-16T10:16:07;22.50;;;11.35;;
52942;SDS011;38809;53.300;6.614;2023-04-16T10:18:37;26.30;;;10.88;;
52942;SDS011;38809;53.300;6.614;2023-04-16T10:21:07;26.00;;;11.10;;
52942;SDS011;38809;53.300;6.614;2023-04-16T10:23:37;18.33;;;10.60;;
52942;SDS011;38809;53.300;6.614;2023-04-16T10:26:04;24.63;;;10.80;;
52942;SDS011;38809;53.300;6.614;2023-04-16T10:28:30;16.75;;;9.52;;
52942;SDS011;38809;53.300;6.614;2023-04-16T10:30:59;20.92;;;9.85;;
52942;SDS011;38809;53.300;6.614;2023-04-16T10:33:28;18.25;;;9.25;;
52942;SDS011;38809;53.300;6.614;2023-04-16T10:36:06;17.55;;;9.05;;
52942;SDS011;38809;53.300;6.614;2023-04-16T10:38:32;21.02;;;9.80;;
52942;SDS011;38809;53.300;6.614;2023-04-16T10:41:00;16.40;;;8.85;;
52942;SDS011;38809;53.300;6.614;2023-04-16T10:43:27;17.05;;;8.43;;
52942;SDS011;38809;53.300;6.614;2023-04-16T10:45:55;17.30;;;8.98;;
52942;SDS011;38809;53.300;6.614;2023-04-16T10:48:22;17.25;;;9.27;;
52942;SDS011;38809;53.300;6.614;2023-04-16T10:50:52;19.50;;;9.48;;
52942;SDS011;38809;53.300;6.614;2023-04-16T10:53:24;21.10;;;10.15;;
52942;SDS011;38809;53.300;6.614;2023-04-16T10:58:30;16.52;;;9.65;;
52942;SDS011;38809;53.300;6.614;2023-04-16T11:00:59;15.32;;;9.55;;
52942;SDS011;38809;53.300;6.614;2023-04-16T11:03:31;19.13;;;9.10;;
52942;SDS011;38809;53.300;6.614;2023-04-16T11:06:10;16.95;;;9.68;;
52942;SDS011;38809;53.300;6.614;2023-04-16T11:08:42;16.75;;;9.93;;
52942;SDS011;38809;53.300;6.614;2023-04-16T11:11:12;16.23;;;9.52;;
52942;SDS011;38809;53.300;6.614;2023-04-16T11:13:39;16.45;;;9.65;;
52942;SDS011;38809;53.300;6.614;2023-04-16T11:16:09;14.77;;;9.10;;
52942;SDS011;38809;53.300;6.614;2023-04-16T11:18:35;17.00;;;9.13;;
52942;SDS011;38809;53.300;6.614;2023-04-16T11:21:05;16.60;;;8.80;;
52942;SDS011;38809;53.300;6.614;2023-04-16T11:23:44;17.58;;;8.85;;
52942;SDS011;38809;53.300;6.614;2023-04-16T11:26:21;17.48;;;9.25;;
52942;SDS011;38809;53.300;6.614;2023-04-16T11:28:52;16.85;;;8.82;;
52942;SDS011;38809;53.300;6.614;2023-04-16T11:31:18;16.75;;;8.80;;
52942;SDS011;38809;53.300;6.614;2023-04-16T11:33:44;17.58;;;9.32;;
52942;SDS011;38809;53.300;6.614;2023-04-16T11:36:10;18.10;;;9.32;;
52942;SDS011;38809;53.300;6.614;2023-04-16T11:38:36;14.50;;;9.23;;
52942;SDS011;38809;53.300;6.614;2023-04-16T11:41:05;18.08;;;10.27;;
52942;SDS011;38809;53.300;6.614;2023-04-16T11:43:31;19.35;;;9.38;;
52942;SDS011;38809;53.300;6.614;2023-04-16T11:45:57;21.00;;;9.50;;
52942;SDS011;38809;53.300;6.614;2023-04-16T11:48:24;18.58;;;10.60;;
52942;SDS011;38809;53.300;6.614;2023-04-16T11:51:10;16.70;;;9.27;;
52942;SDS011;38809;53.300;6.614;2023-04-16T11:53:43;16.95;;;9.25;;
52942;SDS011;38809;53.300;6.614;2023-04-16T11:56:10;18.70;;;9.88;;
52942;SDS011;38809;53.300;6.614;2023-04-16T11:58:36;17.85;;;10.18;;
52942;SDS011;38809;53.300;6.614;2023-04-16T12:01:01;20.23;;;9.23;;
52942;SDS011;38809;53.300;6.614;2023-04-16T12:03:40;16.42;;;8.82;;
52942;SDS011;38809;53.300;6.614;2023-04-16T12:06:09;16.80;;;9.15;;
52942;SDS011;38809;53.300;6.614;2023-04-16T12:08:35;14.65;;;8.27;;
52942;SDS011;38809;53.300;6.614;2023-04-16T12:11:01;17.35;;;9.02;;
52942;SDS011;38809;53.300;6.614;2023-04-16T12:13:27;19.80;;;9.32;;
52942;SDS011;38809;53.300;6.614;2023-04-16T12:15:53;17.58;;;9.35;;
52942;SDS011;38809;53.300;6.614;2023-04-16T12:18:21;18.95;;;9.63;;
52942;SDS011;38809;53.300;6.614;2023-04-16T12:20:50;17.25;;;9.65;;
52942;SDS011;38809;53.300;6.614;2023-04-16T12:23:23;18.42;;;10.27;;
52942;SDS011;38809;53.300;6.614;2023-04-16T12:25:50;16.83;;;8.90;;
52942;SDS011;38809;53.300;6.614;2023-04-16T12:28:32;14.10;;;8.48;;
52942;SDS011;38809;53.300;6.614;2023-04-16T12:31:00;18.02;;;8.52;;
52942;SDS011;38809;53.300;6.614;2023-04-16T12:33:26;17.20;;;9.27;;
52942;SDS011;38809;53.300;6.614;2023-04-16T12:35:52;21.92;;;10.95;;
52942;SDS011;38809;53.300;6.614;2023-04-16T12:38:18;18.05;;;11.27;;
52942;SDS011;38809;53.300;6.614;2023-04-16T12:40:44;20.73;;;10.75;;
52942;SDS011;38809;53.300;6.614;2023-04-16T12:43:10;21.77;;;11.40;;
52942;SDS011;38809;53.300;6.614;2023-04-16T12:45:37;22.05;;;11.63;;
52942;SDS011;38809;53.300;6.614;2023-04-16T12:48:06;18.60;;;10.77;;
52942;SDS011;38809;53.300;6.614;2023-04-16T12:50:31;19.30;;;11.07;;
52942;SDS011;38809;53.300;6.614;2023-04-16T12:52:57;18.55;;;10.35;;
52942;SDS011;38809;53.300;6.614;2023-04-16T12:55:23;18.25;;;9.95;;
52942;SDS011;38809;53.300;6.614;2023-04-16T12:57:49;15.68;;;9.95;;
52942;SDS011;38809;53.300;6.614;2023-04-16T13:00:17;19.00;;;10.60;;
52942;SDS011;38809;53.300;6.614;2023-04-16T13:02:44;16.65;;;9.65;;
52942;SDS011;38809;53.300;6.614;2023-04-16T13:05:10;18.05;;;10.40;;
52942;SDS011;38809;53.300;6.614;2023-04-16T13:07:37;21.73;;;10.68;;
52942;SDS011;38809;53.300;6.614;2023-04-16T13:10:03;20.95;;;10.70;;
52942;SDS011;38809;53.300;6.614;2023-04-16T13:12:30;17.30;;;9.98;;
52942;SDS011;38809;53.300;6.614;2023-04-16T13:14:56;15.65;;;9.82;;
52942;SDS011;38809;53.300;6.614;2023-04-16T13:17:22;15.90;;;10.25;;
52942;SDS011;38809;53.300;6.614;2023-04-16T13:19:48;15.98;;;11.10;;
52942;SDS011;38809;53.300;6.614;2023-04-16T13:22:14;14.43;;;9.30;;
52942;SDS011;38809;53.300;6.614;2023-04-16T13:24:39;15.02;;;9.35;;
52942;SDS011;38809;53.300;6.614;2023-04-16T13:27:05;20.98;;;11.10;;
52942;SDS011;38809;53.300;6.614;2023-04-16T13:29:32;18.17;;;10.80;;
52942;SDS011;38809;53.300;6.614;2023-04-16T13:32:00;22.70;;;10.98;;
52942;SDS011;38809;53.300;6.614;2023-04-16T13:34:27;19.08;;;11.20;;
52942;SDS011;38809;53.300;6.614;2023-04-16T13:36:52;17.98;;;11.50;;
52942;SDS011;38809;53.300;6.614;2023-04-16T13:39:18;18.30;;;10.73;;
52942;SDS011;38809;53.300;6.614;2023-04-16T13:41:44;20.15;;;10.07;;
52942;SDS011;38809;53.300;6.614;2023-04-16T13:44:10;22.02;;;12.13;;
52942;SDS011;38809;53.300;6.614;2023-04-16T13:46:35;16.60;;;10.27;;
52942;SDS011;38809;53.300;6.614;2023-04-16T13:49:01;16.42;;;9.77;;
52942;SDS011;38809;53.300;6.614;2023-04-16T13:51:27;19.10;;;11.20;;
52942;SDS011;38809;53.300;6.614;2023-04-16T13:53:53;17.10;;;10.38;;
52942;SDS011;38809;53.300;6.614;2023-04-16T13:56:20;17.10;;;10.48;;
52942;SDS011;38809;53.300;6.614;2023-04-16T13:58:45;17.05;;;10.00;;
52942;SDS011;38809;53.300;6.614;2023-04-16T14:01:11;16.15;;;10.57;;
52942;SDS011;38809;53.300;6.614;2023-04-16T14:03:37;14.50;;;9.75;;
52942;SDS011;38809;53.300;6.614;2023-04-16T14:06:04;17.83;;;9.80;;
52942;SDS011;38809;53.300;6.614;2023-04-16T14:08:30;18.23;;;10.15;;
52942;SDS011;38809;53.300;6.614;2023-04-16T14:10:56;14.68;;;8.43;;
52942;SDS011;38809;53.300;6.614;2023-04-16T14:13:22;16.88;;;9.52;;
52942;SDS011;38809;53.300;6.614;2023-04-16T14:15:49;14.82;;;9.07;;
52942;SDS011;38809;53.300;6.614;2023-04-16T14:18:15;16.27;;;8.82;;
52942;SDS011;38809;53.300;6.614;2023-04-16T14:20:41;19.85;;;8.63;;
52942;SDS011;38809;53.300;6.614;2023-04-16T14:23:07;12.55;;;8.40;;
52942;SDS011;38809;53.300;6.614;2023-04-16T14:25:33;18.05;;;10.02;;
52942;SDS011;38809;53.300;6.614;2023-04-16T14:27:59;18.02;;;10.10;;
52942;SDS011;38809;53.300;6.614;2023-04-16T14:30:25;18.20;;;10.05;;
52942;SDS011;38809;53.300;6.614;2023-04-16T14:32:51;18.48;;;10.23;;
52942;SDS011;38809;53.300;6.614;2023-04-16T14:35:18;15.75;;;9.27;;
52942;SDS011;38809;53.300;6.614;2023-04-16T14:37:44;18.38;;;9.98;;
52942;SDS011;38809;53.300;6.614;2023-04-16T14:40:10;19.13;;;9.90;;
52942;SDS011;38809;53.300;6.614;2023-04-16T14:42:36;16.45;;;9.60;;
52942;SDS011;38809;53.300;6.614;2023-04-16T14:45:03;16.63;;;9.77;;
52942;SDS011;38809;53.300;6.614;2023-04-16T14:47:31;19.00;;;10.23;;
52942;SDS011;38809;53.300;6.614;2023-04-16T14:49:58;17.60;;;10.40;;
52942;SDS011;38809;53.300;6.614;2023-04-16T14:52:24;16.08;;;10.98;;
52942;SDS011;38809;53.300;6.614;2023-04-16T14:54:50;22.08;;;11.82;;
52942;SDS011;38809;53.300;6.614;2023-04-16T14:57:16;16.50;;;11.20;;
52942;SDS011;38809;53.300;6.614;2023-04-16T14:59:42;17.48;;;9.57;;
52942;SDS011;38809;53.300;6.614;2023-04-16T15:02:08;17.80;;;10.73;;
52942;SDS011;38809;53.300;6.614;2023-04-16T15:04:34;16.75;;;10.30;;
52942;SDS011;38809;53.300;6.614;2023-04-16T15:07:00;16.60;;;10.15;;
52942;SDS011;38809;53.300;6.614;2023-04-16T15:09:26;13.25;;;8.90;;
52942;SDS011;38809;53.300;6.614;2023-04-16T15:11:52;16.27;;;9.43;;
52942;SDS011;38809;53.300;6.614;2023-04-16T15:14:18;13.82;;;9.23;;
52942;SDS011;38809;53.300;6.614;2023-04-16T15:16:44;15.98;;;9.93;;
52942;SDS011;38809;53.300;6.614;2023-04-16T15:21:36;22.52;;;11.43;;
52942;SDS011;38809;53.300;6.614;2023-04-16T15:24:01;18.60;;;10.27;;
52942;SDS011;38809;53.300;6.614;2023-04-16T15:26:28;20.25;;;11.95;;
52942;SDS011;38809;53.300;6.614;2023-04-16T15:28:54;19.10;;;10.65;;
52942;SDS011;38809;53.300;6.614;2023-04-16T15:31:20;24.55;;;12.20;;
52942;SDS011;38809;53.300;6.614;2023-04-16T15:33:46;22.20;;;12.27;;
52942;SDS011;38809;53.300;6.614;2023-04-16T15:36:12;21.15;;;11.65;;
52942;SDS011;38809;53.300;6.614;2023-04-16T15:38:38;20.75;;;11.45;;
52942;SDS011;38809;53.300;6.614;2023-04-16T15:41:04;20.92;;;11.35;;
52942;SDS011;38809;53.300;6.614;2023-04-16T15:43:30;21.55;;;12.85;;
52942;SDS011;38809;53.300;6.614;2023-04-16T15:45:56;22.02;;;12.07;;
52942;SDS011;38809;53.300;6.614;2023-04-16T15:48:22;20.10;;;11.27;;
52942;SDS011;38809;53.300;6.614;2023-04-16T15:50:48;18.27;;;11.32;;
52942;SDS011;38809;53.300;6.614;2023-04-16T15:53:16;21.70;;;12.60;;
52942;SDS011;38809;53.300;6.614;2023-04-16T15:55:42;22.85;;;12.68;;
52942;SDS011;38809;53.300;6.614;2023-04-16T15:58:08;23.63;;;13.05;;
52942;SDS011;38809;53.300;6.614;2023-04-16T16:00:33;24.75;;;13.23;;
52942;SDS011;38809;53.300;6.614;2023-04-16T16:02:59;25.95;;;14.40;;
52942;SDS011;38809;53.300;6.614;2023-04-16T16:07:51;19.33;;;11.30;;
52942;SDS011;38809;53.300;6.614;2023-04-16T16:10:17;20.13;;;12.20;;
52942;SDS011;38809;53.300;6.614;2023-04-16T16:12:44;20.10;;;11.45;;
52942;SDS011;38809;53.300;6.614;2023-04-16T16:17:36;18.20;;;11.15;;
52942;SDS011;38809;53.300;6.614;2023-04-16T16:20:02;21.92;;;11.38;;
52942;SDS011;38809;53.300;6.614;2023-04-16T16:22:28;20.17;;;12.70;;
52942;SDS011;38809;53.300;6.614;2023-04-16T16:24:54;20.38;;;13.20;;
52942;SDS011;38809;53.300;6.614;2023-04-16T16:27:21;22.67;;;14.02;;
52942;SDS011;38809;53.300;6.614;2023-04-16T16:29:47;17.63;;;11.27;;
52942;SDS011;38809;53.300;6.614;2023-04-16T16:32:13;19.58;;;11.95;;
52942;SDS011;38809;53.300;6.614;2023-04-16T16:34:39;17.98;;;11.82;;
52942;SDS011;38809;53.300;6.614;2023-04-16T16:37:04;23.20;;;13.17;;
52942;SDS011;38809;53.300;6.614;2023-04-16T16:39:31;19.52;;;12.45;;
52942;SDS011;38809;53.300;6.614;2023-04-16T16:41:56;19.52;;;12.10;;
52942;SDS011;38809;53.300;6.614;2023-04-16T16:44:22;24.17;;;14.98;;
52942;SDS011;38809;53.300;6.614;2023-04-16T16:46:48;20.17;;;12.35;;
52942;SDS011;38809;53.300;6.614;2023-04-16T16:49:14;18.75;;;12.52;;
52942;SDS011;38809;53.300;6.614;2023-04-16T16:51:41;21.55;;;13.63;;
52942;SDS011;38809;53.300;6.614;2023-04-16T16:54:10;23.30;;;13.88;;
52942;SDS011;38809;53.300;6.614;2023-04-16T16:56:35;23.30;;;14.82;;
52942;SDS011;38809;53.300;6.614;2023-04-16T16:59:01;20.08;;;12.18;;
52942;SDS011;38809;53.300;6.614;2023-04-16T17:01:27;22.00;;;13.50;;
52942;SDS011;38809;53.300;6.614;2023-04-16T17:06:20;21.60;;;13.82;;
52942;SDS011;38809;53.300;6.614;2023-04-16T17:08:46;22.13;;;13.35;;
52942;SDS011;38809;53.300;6.614;2023-04-16T17:11:12;22.48;;;14.18;;
52942;SDS011;38809;53.300;6.614;2023-04-16T17:13:41;26.02;;;14.95;;
52942;SDS011;38809;53.300;6.614;2023-04-16T17:16:06;22.25;;;13.93;;
52942;SDS011;38809;53.300;6.614;2023-04-16T17:18:32;19.45;;;12.95;;
52942;SDS011;38809;53.300;6.614;2023-04-16T17:20:58;25.25;;;12.75;;
52942;SDS011;38809;53.300;6.614;2023-04-16T17:23:24;20.53;;;12.93;;
52942;SDS011;38809;53.300;6.614;2023-04-16T17:25:50;20.77;;;12.57;;
52942;SDS011;38809;53.300;6.614;2023-04-16T17:28:15;18.83;;;12.80;;
52942;SDS011;38809;53.300;6.614;2023-04-16T17:30:41;20.65;;;12.25;;
52942;SDS011;38809;53.300;6.614;2023-04-16T17:33:07;23.17;;;12.98;;
52942;SDS011;38809;53.300;6.614;2023-04-16T17:35:33;21.60;;;12.30;;
52942;SDS011;38809;53.300;6.614;2023-04-16T17:37:58;19.48;;;12.63;;
52942;SDS011;38809;53.300;6.614;2023-04-16T17:40:25;21.15;;;12.55;;
52942;SDS011;38809;53.300;6.614;2023-04-16T17:42:50;22.58;;;13.35;;
52942;SDS011;38809;53.300;6.614;2023-04-16T17:45:17;23.90;;;13.90;;
52942;SDS011;38809;53.300;6.614;2023-04-16T17:47:43;21.20;;;12.75;;
52942;SDS011;38809;53.300;6.614;2023-04-16T17:50:09;18.77;;;11.65;;
52942;SDS011;38809;53.300;6.614;2023-04-16T17:52:35;26.15;;;12.60;;
52942;SDS011;38809;53.300;6.614;2023-04-16T17:55:02;17.25;;;10.60;;
52942;SDS011;38809;53.300;6.614;2023-04-16T17:57:29;17.48;;;11.10;;
52942;SDS011;38809;53.300;6.614;2023-04-16T17:59:55;20.20;;;12.13;;
52942;SDS011;38809;53.300;6.614;2023-04-16T18:02:20;17.00;;;11.32;;
52942;SDS011;38809;53.300;6.614;2023-04-16T18:04:46;19.27;;;12.27;;
52942;SDS011;38809;53.300;6.614;2023-04-16T18:07:12;19.20;;;12.32;;
52942;SDS011;38809;53.300;6.614;2023-04-16T18:09:39;21.75;;;13.00;;
52942;SDS011;38809;53.300;6.614;2023-04-16T18:14:34;18.67;;;12.07;;
52942;SDS011;38809;53.300;6.614;2023-04-16T18:17:01;18.75;;;11.75;;
52942;SDS011;38809;53.300;6.614;2023-04-16T18:19:27;17.83;;;10.55;;
52942;SDS011;38809;53.300;6.614;2023-04-16T18:21:53;18.27;;;11.52;;
52942;SDS011;38809;53.300;6.614;2023-04-16T18:24:19;18.55;;;11.90;;
52942;SDS011;38809;53.300;6.614;2023-04-16T18:26:45;17.60;;;11.43;;
52942;SDS011;38809;53.300;6.614;2023-04-16T18:29:11;21.27;;;11.52;;
52942;SDS011;38809;53.300;6.614;2023-04-16T18:31:37;18.33;;;12.77;;
52942;SDS011;38809;53.300;6.614;2023-04-16T18:34:02;20.70;;;12.23;;
52942;SDS011;38809;53.300;6.614;2023-04-16T18:36:28;20.80;;;12.48;;
52942;SDS011;38809;53.300;6.614;2023-04-16T18:41:20;18.35;;;11.68;;
52942;SDS011;38809;53.300;6.614;2023-04-16T18:43:46;18.40;;;11.70;;
52942;SDS011;38809;53.300;6.614;2023-04-16T18:46:13;24.90;;;13.07;;
52942;SDS011;38809;53.300;6.614;2023-04-16T18:51:05;19.52;;;11.25;;
52942;SDS011;38809;53.300;6.614;2023-04-16T18:53:31;18.55;;;11.70;;
52942;SDS011;38809;53.300;6.614;2023-04-16T18:55:57;21.88;;;12.30;;
52942;SDS011;38809;53.300;6.614;2023-04-16T18:58:23;26.10;;;14.93;;
52942;SDS011;38809;53.300;6.614;2023-04-16T19:00:53;23.55;;;14.55;;
52942;SDS011;38809;53.300;6.614;2023-04-16T19:03:19;20.83;;;13.77;;
52942;SDS011;38809;53.300;6.614;2023-04-16T19:05:45;19.48;;;14.15;;
52942;SDS011;38809;53.300;6.614;2023-04-16T19:08:11;21.20;;;11.90;;
52942;SDS011;38809;53.300;6.614;2023-04-16T19:10:37;22.88;;;12.98;;
52942;SDS011;38809;53.300;6.614;2023-04-16T19:13:03;27.27;;;16.17;;
52942;SDS011;38809;53.300;6.614;2023-04-16T19:15:28;21.30;;;13.23;;
52942;SDS011;38809;53.300;6.614;2023-04-16T19:17:54;23.60;;;13.73;;
52942;SDS011;38809;53.300;6.614;2023-04-16T19:20:20;23.00;;;14.07;;
52942;SDS011;38809;53.300;6.614;2023-04-16T19:22:46;20.00;;;12.00;;
52942;SDS011;38809;53.300;6.614;2023-04-16T19:25:11;22.73;;;15.05;;
52942;SDS011;38809;53.300;6.614;2023-04-16T19:27:37;21.20;;;12.90;;
52942;SDS011;38809;53.300;6.614;2023-04-16T19:30:04;23.25;;;13.45;;
52942;SDS011;38809;53.300;6.614;2023-04-16T19:32:30;22.17;;;12.80;;
52942;SDS011;38809;53.300;6.614;2023-04-16T19:34:56;22.95;;;13.10;;
52942;SDS011;38809;53.300;6.614;2023-04-16T19:37:22;23.20;;;14.63;;
52942;SDS011;38809;53.300;6.614;2023-04-16T19:39:47;20.53;;;12.47;;
52942;SDS011;38809;53.300;6.614;2023-04-16T19:42:13;21.58;;;13.55;;
52942;SDS011;38809;53.300;6.614;2023-04-16T19:44:39;29.27;;;17.20;;
52942;SDS011;38809;53.300;6.614;2023-04-16T19:47:05;25.45;;;16.10;;
52942;SDS011;38809;53.300;6.614;2023-04-16T19:49:31;24.52;;;14.27;;
52942;SDS011;38809;53.300;6.614;2023-04-16T19:51:57;23.83;;;13.80;;
52942;SDS011;38809;53.300;6.614;2023-04-16T19:54:23;22.60;;;13.38;;
52942;SDS011;38809;53.300;6.614;2023-04-16T19:56:49;26.07;;;14.93;;
52942;SDS011;38809;53.300;6.614;2023-04-16T19:59:17;26.10;;;15.45;;
52942;SDS011;38809;53.300;6.614;2023-04-16T20:01:44;30.17;;;15.00;;
52942;SDS011;38809;53.300;6.614;2023-04-16T20:04:10;24.38;;;14.77;;
52942;SDS011;38809;53.300;6.614;2023-04-16T20:06:36;28.80;;;16.00;;
52942;SDS011;38809;53.300;6.614;2023-04-16T20:09:01;30.77;;;18.13;;
52942;SDS011;38809;53.300;6.614;2023-04-16T20:11:28;30.67;;;16.75;;
52942;SDS011;38809;53.300;6.614;2023-04-16T20:13:54;23.52;;;14.75;;
52942;SDS011;38809;53.300;6.614;2023-04-16T20:16:24;24.10;;;14.13;;
52942;SDS011;38809;53.300;6.614;2023-04-16T20:18:49;23.92;;;15.23;;
52942;SDS011;38809;53.300;6.614;2023-04-16T20:21:18;26.52;;;14.57;;
52942;SDS011;38809;53.300;6.614;2023-04-16T20:23:44;20.50;;;13.68;;
52942;SDS011;38809;53.300;6.614;2023-04-16T20:26:14;21.67;;;13.63;;